sensor_id;sensor_type;location;lat;lon;timestamp;temperature;humidity
25668;DHT22;18003;-33.830;151.202;2022-09-09T00:02:22;16.40;99.90
25668;DHT22;18003;-33.830;151.202;2022-09-09T00:05:41;16.30;99.90
25668;DHT22;18003;-33.830;151.202;2022-09-09T00:07:54;16.30;99.90
25668;DHT22;18003;-33.830;151.202;2022-09-09T00:10:28;16.30;99.90
25668;DHT22;18003;-33.830;151.202;2022-09-09T00:13:02;16.30;99.90
25668;DHT22;18003;-33.830;151.202;2022-09-09T00:15:35;16.30;99.90
25668;DHT22;18003;-33.830;151.202;2022-09-09T00:18:05;16.40;99.90
25668;DHT22;18003;-33.830;151.202;2022-09-09T00:20:49;16.40;99.90
25668;DHT22;18003;-33.830;151.202;2022-09-09T00:23:30;16.40;99.90
25668;DHT22;18003;-33.830;151.202;2022-09-09T00:26:02;16.40;99.90
25668;DHT22;18003;-33.830;151.202;2022-09-09T00:28:36;16.50;99.90
25668;DHT22;18003;-33.830;151.202;2022-09-09T00:31:20;16.50;99.90
25668;DHT22;18003;-33.830;151.202;2022-09-09T00:33:46;16.50;99.90
25668;DHT22;18003;-33.830;151.202;2022-09-09T00:36:18;16.50;99.90
25668;DHT22;18003;-33.830;151.202;2022-09-09T00:38:59;16.50;99.90
25668;DHT22;18003;-33.830;151.202;2022-09-09T00:44:16;16.50;99.90
25668;DHT22;18003;-33.830;151.202;2022-09-09T00:57:40;16.50;99.90
25668;DHT22;18003;-33.830;151.202;2022-09-09T01:00:23;16.50;99.90
25668;DHT22;18003;-33.830;151.202;2022-09-09T01:03:17;16.50;99.90
25668;DHT22;18003;-33.830;151.202;2022-09-09T01:06:14;16.50;99.90
25668;DHT22;18003;-33.830;151.202;2022-09-09T01:09:02;16.50;99.90
25668;DHT22;18003;-33.830;151.202;2022-09-09T01:14:22;16.50;99.90
25668;DHT22;18003;-33.830;151.202;2022-09-09T01:16:49;16.40;99.90
25668;DHT22;18003;-33.830;151.202;2022-09-09T01:19:24;16.40;99.90
25668;DHT22;18003;-33.830;151.202;2022-09-09T01:21:56;16.40;99.90
25668;DHT22;18003;-33.830;151.202;2022-09-09T01:27:02;16.50;99.90
25668;DHT22;18003;-33.830;151.202;2022-09-09T01:29:34;16.50;99.90
25668;DHT22;18003;-33.830;151.202;2022-09-09T01:34:52;16.50;99.90
25668;DHT22;18003;-33.830;151.202;2022-09-09T01:37:22;16.50;99.90
25668;DHT22;18003;-33.830;151.202;2022-09-09T01:39:52;16.50;99.90
25668;DHT22;18003;-33.830;151.202;2022-09-09T01:42:22;16.50;99.90
25668;DHT22;18003;-33.830;151.202;2022-09-09T01:44:52;16.50;99.90
25668;DHT22;18003;-33.830;151.202;2022-09-09T01:47:23;16.50;99.90
25668;DHT22;18003;-33.830;151.202;2022-09-09T01:53:33;16.40;99.90
25668;DHT22;18003;-33.830;151.202;2022-09-09T01:56:31;16.40;99.90
25668;DHT22;18003;-33.830;151.202;2022-09-09T01:59:09;16.40;99.90
25668;DHT22;18003;-33.830;151.202;2022-09-09T02:04:54;16.40;99.90
25668;DHT22;18003;-33.830;151.202;2022-09-09T02:07:40;16.40;99.90
25668;DHT22;18003;-33.830;151.202;2022-09-09T02:10:17;16.40;99.90
25668;DHT22;18003;-33.830;151.202;2022-09-09T02:12:44;16.40;99.90
25668;DHT22;18003;-33.830;151.202;2022-09-09T02:15:24;16.40;99.90
25668;DHT22;18003;-33.830;151.202;2022-09-09T02:17:53;16.40;99.90
25668;DHT22;18003;-33.830;151.202;2022-09-09T02:20:25;16.40;99.90
25668;DHT22;18003;-33.830;151.202;2022-09-09T02:22:57;16.50;99.90
25668;DHT22;18003;-33.830;151.202;2022-09-09T02:25:28;16.50;99.90
25668;DHT22;18003;-33.830;151.202;2022-09-09T02:27:58;16.50;99.90
25668;DHT22;18003;-33.830;151.202;2022-09-09T02:30:29;16.50;99.90
25668;DHT22;18003;-33.830;151.202;2022-09-09T02:33:01;16.50;99.90
25668;DHT22;18003;-33.830;151.202;2022-09-09T02:35:33;16.50;99.90
25668;DHT22;18003;-33.830;151.202;2022-09-09T02:38:07;16.60;99.90
25668;DHT22;18003;-33.830;151.202;2022-09-09T02:40:35;16.50;99.90
25668;DHT22;18003;-33.830;151.202;2022-09-09T02:43:05;16.50;99.90
25668;DHT22;18003;-33.830;151.202;2022-09-09T02:45:41;16.60;99.90
25668;DHT22;18003;-33.830;151.202;2022-09-09T02:48:17;16.60;99.90
25668;DHT22;18003;-33.830;151.202;2022-09-09T02:53:30;16.60;99.90
25668;DHT22;18003;-33.830;151.202;2022-09-09T02:56:18;16.60;99.90
25668;DHT22;18003;-33.830;151.202;2022-09-09T02:58:48;16.60;99.90
25668;DHT22;18003;-33.830;151.202;2022-09-09T03:01:20;16.60;99.90
25668;DHT22;18003;-33.830;151.202;2022-09-09T03:03:50;16.60;99.90
25668;DHT22;18003;-33.830;151.202;2022-09-09T03:06:20;16.60;99.90
25668;DHT22;18003;-33.830;151.202;2022-09-09T03:08:50;16.60;99.90
25668;DHT22;18003;-33.830;151.202;2022-09-09T03:11:20;16.60;99.90
25668;DHT22;18003;-33.830;151.202;2022-09-09T03:13:50;16.60;99.90
25668;DHT22;18003;-33.830;151.202;2022-09-09T03:16:20;16.60;99.90
25668;DHT22;18003;-33.830;151.202;2022-09-09T03:18:50;16.60;99.90
25668;DHT22;18003;-33.830;151.202;2022-09-09T03:21:21;16.70;99.90
25668;DHT22;18003;-33.830;151.202;2022-09-09T03:23:51;16.70;99.90
25668;DHT22;18003;-33.830;151.202;2022-09-09T03:26:21;16.70;99.90
25668;DHT22;18003;-33.830;151.202;2022-09-09T03:28:51;16.70;99.90
25668;DHT22;18003;-33.830;151.202;2022-09-09T03:31:21;16.70;99.90
25668;DHT22;18003;-33.830;151.202;2022-09-09T03:33:51;16.80;99.90
25668;DHT22;18003;-33.830;151.202;2022-09-09T03:36:21;16.70;99.90
25668;DHT22;18003;-33.830;151.202;2022-09-09T03:38:52;16.70;99.90
25668;DHT22;18003;-33.830;151.202;2022-09-09T03:41:22;16.70;99.90
25668;DHT22;18003;-33.830;151.202;2022-09-09T03:43:53;16.80;99.90
25668;DHT22;18003;-33.830;151.202;2022-09-09T03:46:24;16.80;99.90
25668;DHT22;18003;-33.830;151.202;2022-09-09T03:48:55;16.80;99.90
25668;DHT22;18003;-33.830;151.202;2022-09-09T03:51:25;16.80;99.90
25668;DHT22;18003;-33.830;151.202;2022-09-09T03:53:55;16.80;99.90
25668;DHT22;18003;-33.830;151.202;2022-09-09T03:56:26;16.80;99.90
25668;DHT22;18003;-33.830;151.202;2022-09-09T03:58:56;16.80;99.90
25668;DHT22;18003;-33.830;151.202;2022-09-09T04:01:26;16.90;99.90
25668;DHT22;18003;-33.830;151.202;2022-09-09T04:03:56;16.90;99.90
25668;DHT22;18003;-33.830;151.202;2022-09-09T04:06:27;16.90;99.90
25668;DHT22;18003;-33.830;151.202;2022-09-09T04:08:58;16.90;99.90
25668;DHT22;18003;-33.830;151.202;2022-09-09T04:11:29;16.90;99.90
25668;DHT22;18003;-33.830;151.202;2022-09-09T04:13:59;16.90;99.90
25668;DHT22;18003;-33.830;151.202;2022-09-09T04:16:29;16.90;99.90
25668;DHT22;18003;-33.830;151.202;2022-09-09T04:18:59;16.90;99.90
25668;DHT22;18003;-33.830;151.202;2022-09-09T04:21:29;16.90;99.90
25668;DHT22;18003;-33.830;151.202;2022-09-09T04:23:59;16.90;99.90
25668;DHT22;18003;-33.830;151.202;2022-09-09T04:26:29;16.90;99.90
25668;DHT22;18003;-33.830;151.202;2022-09-09T04:28:59;17.00;99.90
25668;DHT22;18003;-33.830;151.202;2022-09-09T04:31:29;17.00;99.90
25668;DHT22;18003;-33.830;151.202;2022-09-09T04:33:59;17.00;99.90
25668;DHT22;18003;-33.830;151.202;2022-09-09T04:36:33;16.90;99.90
25668;DHT22;18003;-33.830;151.202;2022-09-09T04:39:03;17.00;99.90
25668;DHT22;18003;-33.830;151.202;2022-09-09T04:41:33;16.90;99.90
25668;DHT22;18003;-33.830;151.202;2022-09-09T04:44:03;16.90;99.90
25668;DHT22;18003;-33.830;151.202;2022-09-09T04:46:34;16.90;99.90
25668;DHT22;18003;-33.830;151.202;2022-09-09T04:49:04;17.00;99.90
25668;DHT22;18003;-33.830;151.202;2022-09-09T04:51:34;16.90;99.90
25668;DHT22;18003;-33.830;151.202;2022-09-09T04:54:04;16.90;99.90
25668;DHT22;18003;-33.830;151.202;2022-09-09T04:56:34;17.00;99.90
25668;DHT22;18003;-33.830;151.202;2022-09-09T04:59:05;16.90;99.90
25668;DHT22;18003;-33.830;151.202;2022-09-09T05:01:35;17.00;99.90
25668;DHT22;18003;-33.830;151.202;2022-09-09T05:04:05;17.00;99.90
25668;DHT22;18003;-33.830;151.202;2022-09-09T05:06:35;17.00;99.90
25668;DHT22;18003;-33.830;151.202;2022-09-09T05:09:05;17.00;99.90
25668;DHT22;18003;-33.830;151.202;2022-09-09T05:11:35;17.00;99.90
25668;DHT22;18003;-33.830;151.202;2022-09-09T05:14:07;17.00;99.90
25668;DHT22;18003;-33.830;151.202;2022-09-09T05:16:38;17.10;99.90
25668;DHT22;18003;-33.830;151.202;2022-09-09T05:19:08;17.10;99.90
25668;DHT22;18003;-33.830;151.202;2022-09-09T05:21:39;17.00;99.90
25668;DHT22;18003;-33.830;151.202;2022-09-09T05:24:09;17.10;99.90
25668;DHT22;18003;-33.830;151.202;2022-09-09T05:26:39;17.10;99.90
25668;DHT22;18003;-33.830;151.202;2022-09-09T05:29:09;17.10;99.90
25668;DHT22;18003;-33.830;151.202;2022-09-09T05:31:39;17.00;99.90
25668;DHT22;18003;-33.830;151.202;2022-09-09T05:34:09;17.00;99.90
25668;DHT22;18003;-33.830;151.202;2022-09-09T05:36:39;17.00;99.90
25668;DHT22;18003;-33.830;151.202;2022-09-09T05:39:10;17.00;99.90
25668;DHT22;18003;-33.830;151.202;2022-09-09T05:41:40;17.00;99.90
25668;DHT22;18003;-33.830;151.202;2022-09-09T05:44:10;17.00;99.90
25668;DHT22;18003;-33.830;151.202;2022-09-09T05:46:40;17.00;99.90
25668;DHT22;18003;-33.830;151.202;2022-09-09T05:49:10;17.00;99.90
25668;DHT22;18003;-33.830;151.202;2022-09-09T05:51:40;17.00;99.90
25668;DHT22;18003;-33.830;151.202;2022-09-09T05:54:14;17.00;99.90
25668;DHT22;18003;-33.830;151.202;2022-09-09T05:56:44;17.00;99.90
25668;DHT22;18003;-33.830;151.202;2022-09-09T05:59:14;17.00;99.90
25668;DHT22;18003;-33.830;151.202;2022-09-09T06:01:44;17.00;99.90
25668;DHT22;18003;-33.830;151.202;2022-09-09T06:04:13;17.00;99.90
25668;DHT22;18003;-33.830;151.202;2022-09-09T06:06:44;17.00;99.90
25668;DHT22;18003;-33.830;151.202;2022-09-09T06:09:14;17.00;99.90
25668;DHT22;18003;-33.830;151.202;2022-09-09T06:11:44;17.00;99.90
25668;DHT22;18003;-33.830;151.202;2022-09-09T06:14:14;17.00;99.90
25668;DHT22;18003;-33.830;151.202;2022-09-09T06:16:48;17.00;99.90
25668;DHT22;18003;-33.830;151.202;2022-09-09T06:19:18;17.00;99.90
25668;DHT22;18003;-33.830;151.202;2022-09-09T06:21:48;17.00;99.90
25668;DHT22;18003;-33.830;151.202;2022-09-09T06:24:18;17.00;99.90
25668;DHT22;18003;-33.830;151.202;2022-09-09T06:26:49;17.00;99.90
25668;DHT22;18003;-33.830;151.202;2022-09-09T06:29:19;17.00;99.90
25668;DHT22;18003;-33.830;151.202;2022-09-09T06:31:49;17.00;99.90
25668;DHT22;18003;-33.830;151.202;2022-09-09T06:34:19;17.00;99.90
25668;DHT22;18003;-33.830;151.202;2022-09-09T06:36:49;17.00;99.90
25668;DHT22;18003;-33.830;151.202;2022-09-09T06:39:20;17.00;99.90
25668;DHT22;18003;-33.830;151.202;2022-09-09T06:41:50;17.00;99.90
25668;DHT22;18003;-33.830;151.202;2022-09-09T06:44:21;17.00;99.90
25668;DHT22;18003;-33.830;151.202;2022-09-09T06:46:51;17.00;99.90
25668;DHT22;18003;-33.830;151.202;2022-09-09T06:49:21;17.00;99.90
25668;DHT22;18003;-33.830;151.202;2022-09-09T06:51:51;17.00;99.90
25668;DHT22;18003;-33.830;151.202;2022-09-09T06:54:21;17.00;99.90
25668;DHT22;18003;-33.830;151.202;2022-09-09T06:56:51;17.10;99.90
25668;DHT22;18003;-33.830;151.202;2022-09-09T06:59:22;17.10;99.90
25668;DHT22;18003;-33.830;151.202;2022-09-09T07:01:52;17.10;99.90
25668;DHT22;18003;-33.830;151.202;2022-09-09T07:04:22;17.00;99.90
25668;DHT22;18003;-33.830;151.202;2022-09-09T07:06:53;17.10;99.90
25668;DHT22;18003;-33.830;151.202;2022-09-09T07:09:23;17.00;99.90
25668;DHT22;18003;-33.830;151.202;2022-09-09T07:11:53;17.00;99.90
25668;DHT22;18003;-33.830;151.202;2022-09-09T07:14:23;17.00;99.90
25668;DHT22;18003;-33.830;151.202;2022-09-09T07:16:53;17.00;99.90
25668;DHT22;18003;-33.830;151.202;2022-09-09T07:19:24;17.00;99.90
25668;DHT22;18003;-33.830;151.202;2022-09-09T07:21:54;17.00;99.90
25668;DHT22;18003;-33.830;151.202;2022-09-09T07:24:24;17.00;99.90
25668;DHT22;18003;-33.830;151.202;2022-09-09T07:26:55;17.00;99.90
25668;DHT22;18003;-33.830;151.202;2022-09-09T07:29:25;17.00;99.90
25668;DHT22;18003;-33.830;151.202;2022-09-09T07:31:55;17.00;99.90
25668;DHT22;18003;-33.830;151.202;2022-09-09T07:34:26;17.00;99.90
25668;DHT22;18003;-33.830;151.202;2022-09-09T07:36:56;17.00;99.90
25668;DHT22;18003;-33.830;151.202;2022-09-09T07:39:26;17.00;99.90
25668;DHT22;18003;-33.830;151.202;2022-09-09T07:41:57;17.00;99.90
25668;DHT22;18003;-33.830;151.202;2022-09-09T07:44:26;16.90;99.90
25668;DHT22;18003;-33.830;151.202;2022-09-09T07:46:59;16.90;99.90
25668;DHT22;18003;-33.830;151.202;2022-09-09T07:49:46;16.90;99.90
25668;DHT22;18003;-33.830;151.202;2022-09-09T07:52:17;16.90;99.90
25668;DHT22;18003;-33.830;151.202;2022-09-09T07:54:48;16.90;99.90
25668;DHT22;18003;-33.830;151.202;2022-09-09T07:57:18;16.90;99.90
25668;DHT22;18003;-33.830;151.202;2022-09-09T07:59:48;16.90;99.90
25668;DHT22;18003;-33.830;151.202;2022-09-09T08:02:19;16.90;99.90
25668;DHT22;18003;-33.830;151.202;2022-09-09T08:04:49;16.90;99.90
25668;DHT22;18003;-33.830;151.202;2022-09-09T08:07:19;16.80;99.90
25668;DHT22;18003;-33.830;151.202;2022-09-09T08:09:50;16.80;99.90
25668;DHT22;18003;-33.830;151.202;2022-09-09T08:12:20;16.90;99.90
25668;DHT22;18003;-33.830;151.202;2022-09-09T08:14:50;16.80;99.90
25668;DHT22;18003;-33.830;151.202;2022-09-09T08:17:20;16.80;99.90
25668;DHT22;18003;-33.830;151.202;2022-09-09T08:19:50;16.80;99.90
25668;DHT22;18003;-33.830;151.202;2022-09-09T08:22:21;16.80;99.90
25668;DHT22;18003;-33.830;151.202;2022-09-09T08:24:50;16.80;99.90
25668;DHT22;18003;-33.830;151.202;2022-09-09T08:27:20;16.80;99.90
25668;DHT22;18003;-33.830;151.202;2022-09-09T08:29:51;16.80;99.90
25668;DHT22;18003;-33.830;151.202;2022-09-09T08:32:21;16.80;99.90
25668;DHT22;18003;-33.830;151.202;2022-09-09T08:34:51;16.80;99.90
25668;DHT22;18003;-33.830;151.202;2022-09-09T08:37:21;16.80;99.90
25668;DHT22;18003;-33.830;151.202;2022-09-09T08:39:51;16.80;99.90
25668;DHT22;18003;-33.830;151.202;2022-09-09T08:42:45;16.80;99.90
25668;DHT22;18003;-33.830;151.202;2022-09-09T08:45:29;16.80;99.90
25668;DHT22;18003;-33.830;151.202;2022-09-09T08:50:37;16.70;99.90
25668;DHT22;18003;-33.830;151.202;2022-09-09T08:53:32;16.70;99.90
25668;DHT22;18003;-33.830;151.202;2022-09-09T08:56:03;16.70;99.90
25668;DHT22;18003;-33.830;151.202;2022-09-09T08:58:32;16.70;99.90
25668;DHT22;18003;-33.830;151.202;2022-09-09T09:06:22;16.70;99.90
25668;DHT22;18003;-33.830;151.202;2022-09-09T09:09:02;16.70;99.90
25668;DHT22;18003;-33.830;151.202;2022-09-09T09:11:25;16.70;99.90
25668;DHT22;18003;-33.830;151.202;2022-09-09T09:14:07;16.70;99.90
25668;DHT22;18003;-33.830;151.202;2022-09-09T09:16:51;16.70;99.90
25668;DHT22;18003;-33.830;151.202;2022-09-09T09:19:20;16.60;99.90
25668;DHT22;18003;-33.830;151.202;2022-09-09T09:29:58;16.60;99.90
25668;DHT22;18003;-33.830;151.202;2022-09-09T09:32:30;16.60;99.90
25668;DHT22;18003;-33.830;151.202;2022-09-09T09:34:59;16.60;99.90
25668;DHT22;18003;-33.830;151.202;2022-09-09T09:37:32;16.60;99.90
25668;DHT22;18003;-33.830;151.202;2022-09-09T09:40:14;16.60;99.90
25668;DHT22;18003;-33.830;151.202;2022-09-09T09:42:57;16.50;99.90
25668;DHT22;18003;-33.830;151.202;2022-09-09T09:45:35;16.60;99.90
25668;DHT22;18003;-33.830;151.202;2022-09-09T09:48:08;16.60;99.90
25668;DHT22;18003;-33.830;151.202;2022-09-09T09:53:35;16.50;99.90
25668;DHT22;18003;-33.830;151.202;2022-09-09T09:56:12;16.50;99.90
25668;DHT22;18003;-33.830;151.202;2022-09-09T09:58:50;16.50;99.90
25668;DHT22;18003;-33.830;151.202;2022-09-09T10:01:31;16.50;99.90
25668;DHT22;18003;-33.830;151.202;2022-09-09T10:04:23;16.50;99.90
25668;DHT22;18003;-33.830;151.202;2022-09-09T10:06:32;16.50;99.90
25668;DHT22;18003;-33.830;151.202;2022-09-09T10:09:03;16.40;99.90
25668;DHT22;18003;-33.830;151.202;2022-09-09T10:12:15;16.40;99.90
25668;DHT22;18003;-33.830;151.202;2022-09-09T10:17:57;16.40;99.90
25668;DHT22;18003;-33.830;151.202;2022-09-09T10:23:38;16.40;99.90
25668;DHT22;18003;-33.830;151.202;2022-09-09T10:29:05;16.40;99.90
25668;DHT22;18003;-33.830;151.202;2022-09-09T10:38:02;16.40;99.90
25668;DHT22;18003;-33.830;151.202;2022-09-09T10:39:46;16.30;99.90
25668;DHT22;18003;-33.830;151.202;2022-09-09T10:42:17;16.30;99.90
25668;DHT22;18003;-33.830;151.202;2022-09-09T10:47:49;16.30;99.90
25668;DHT22;18003;-33.830;151.202;2022-09-09T10:50:45;16.30;99.90
25668;DHT22;18003;-33.830;151.202;2022-09-09T10:53:22;16.30;99.90
25668;DHT22;18003;-33.830;151.202;2022-09-09T10:56:01;16.30;99.90
25668;DHT22;18003;-33.830;151.202;2022-09-09T10:58:42;16.30;99.90
25668;DHT22;18003;-33.830;151.202;2022-09-09T11:01:20;16.30;99.90
25668;DHT22;18003;-33.830;151.202;2022-09-09T11:03:47;16.30;99.90
25668;DHT22;18003;-33.830;151.202;2022-09-09T11:06:19;16.30;99.90
25668;DHT22;18003;-33.830;151.202;2022-09-09T11:08:50;16.30;99.90
25668;DHT22;18003;-33.830;151.202;2022-09-09T11:11:27;16.30;99.90
25668;DHT22;18003;-33.830;151.202;2022-09-09T11:14:36;16.30;99.90
25668;DHT22;18003;-33.830;151.202;2022-09-09T11:16:47;16.30;99.90
25668;DHT22;18003;-33.830;151.202;2022-09-09T11:19:17;16.30;99.90
25668;DHT22;18003;-33.830;151.202;2022-09-09T11:21:47;16.30;99.90
25668;DHT22;18003;-33.830;151.202;2022-09-09T11:24:39;16.30;99.90
25668;DHT22;18003;-33.830;151.202;2022-09-09T11:27:21;16.30;99.90
25668;DHT22;18003;-33.830;151.202;2022-09-09T11:30:15;16.30;99.90
25668;DHT22;18003;-33.830;151.202;2022-09-09T11:38:42;16.30;99.90
25668;DHT22;18003;-33.830;151.202;2022-09-09T11:41:08;16.30;99.90
25668;DHT22;18003;-33.830;151.202;2022-09-09T11:43:45;16.30;99.90
25668;DHT22;18003;-33.830;151.202;2022-09-09T11:46:31;16.30;99.90
25668;DHT22;18003;-33.830;151.202;2022-09-09T11:49:01;16.30;99.90
25668;DHT22;18003;-33.830;151.202;2022-09-09T11:51:33;16.30;99.90
25668;DHT22;18003;-33.830;151.202;2022-09-09T11:54:50;16.30;99.90
25668;DHT22;18003;-33.830;151.202;2022-09-09T11:59:21;16.30;99.90
25668;DHT22;18003;-33.830;151.202;2022-09-09T12:02:02;16.30;99.90
25668;DHT22;18003;-33.830;151.202;2022-09-09T12:04:39;16.30;99.90
25668;DHT22;18003;-33.830;151.202;2022-09-09T12:09:44;16.30;99.90
25668;DHT22;18003;-33.830;151.202;2022-09-09T12:14:57;16.30;99.90
25668;DHT22;18003;-33.830;151.202;2022-09-09T12:17:28;16.30;99.90
25668;DHT22;18003;-33.830;151.202;2022-09-09T12:20:18;16.30;99.90
25668;DHT22;18003;-33.830;151.202;2022-09-09T12:23:04;16.30;99.90
25668;DHT22;18003;-33.830;151.202;2022-09-09T12:25:48;16.30;99.90
25668;DHT22;18003;-33.830;151.202;2022-09-09T12:28:24;16.30;99.90
25668;DHT22;18003;-33.830;151.202;2022-09-09T12:33:19;16.30;99.90
25668;DHT22;18003;-33.830;151.202;2022-09-09T12:35:56;16.30;99.90
25668;DHT22;18003;-33.830;151.202;2022-09-09T12:38:36;16.30;99.90
25668;DHT22;18003;-33.830;151.202;2022-09-09T12:41:06;16.30;99.90
25668;DHT22;18003;-33.830;151.202;2022-09-09T12:43:37;16.30;99.90
25668;DHT22;18003;-33.830;151.202;2022-09-09T12:46:08;16.30;99.90
25668;DHT22;18003;-33.830;151.202;2022-09-09T12:48:40;16.30;99.90
25668;DHT22;18003;-33.830;151.202;2022-09-09T12:51:30;16.30;99.90
25668;DHT22;18003;-33.830;151.202;2022-09-09T12:53:57;16.30;99.90
25668;DHT22;18003;-33.830;151.202;2022-09-09T12:56:31;16.30;99.90
25668;DHT22;18003;-33.830;151.202;2022-09-09T12:59:01;16.30;99.90
25668;DHT22;18003;-33.830;151.202;2022-09-09T13:01:32;16.30;99.90
25668;DHT22;18003;-33.830;151.202;2022-09-09T13:04:15;16.30;99.90
25668;DHT22;18003;-33.830;151.202;2022-09-09T13:06:33;16.30;99.90
25668;DHT22;18003;-33.830;151.202;2022-09-09T13:09:03;16.30;99.90
25668;DHT22;18003;-33.830;151.202;2022-09-09T13:11:41;16.30;99.90
25668;DHT22;18003;-33.830;151.202;2022-09-09T13:14:16;16.30;99.90
25668;DHT22;18003;-33.830;151.202;2022-09-09T13:16:59;16.30;99.90
25668;DHT22;18003;-33.830;151.202;2022-09-09T13:19:31;16.30;99.90
25668;DHT22;18003;-33.830;151.202;2022-09-09T13:22:11;16.30;99.90
25668;DHT22;18003;-33.830;151.202;2022-09-09T13:24:34;16.30;99.90
25668;DHT22;18003;-33.830;151.202;2022-09-09T13:27:19;16.30;99.90
25668;DHT22;18003;-33.830;151.202;2022-09-09T13:29:35;16.30;99.90
25668;DHT22;18003;-33.830;151.202;2022-09-09T13:32:12;16.30;99.90
25668;DHT22;18003;-33.830;151.202;2022-09-09T13:34:35;16.20;99.90
25668;DHT22;18003;-33.830;151.202;2022-09-09T13:37:17;16.30;99.90
25668;DHT22;18003;-33.830;151.202;2022-09-09T13:39:50;16.30;99.90
25668;DHT22;18003;-33.830;151.202;2022-09-09T13:42:51;16.20;99.90
25668;DHT22;18003;-33.830;151.202;2022-09-09T13:44:53;16.30;99.90
25668;DHT22;18003;-33.830;151.202;2022-09-09T13:47:30;16.30;99.90
25668;DHT22;18003;-33.830;151.202;2022-09-09T13:50:09;16.20;99.90
25668;DHT22;18003;-33.830;151.202;2022-09-09T13:52:31;16.30;99.90
25668;DHT22;18003;-33.830;151.202;2022-09-09T13:55:01;16.30;99.90
25668;DHT22;18003;-33.830;151.202;2022-09-09T13:57:31;16.30;99.90
25668;DHT22;18003;-33.830;151.202;2022-09-09T14:00:01;16.30;99.90
25668;DHT22;18003;-33.830;151.202;2022-09-09T14:02:33;16.30;99.90
25668;DHT22;18003;-33.830;151.202;2022-09-09T14:05:03;16.20;99.90
25668;DHT22;18003;-33.830;151.202;2022-09-09T14:07:33;16.20;99.90
25668;DHT22;18003;-33.830;151.202;2022-09-09T14:10:03;16.20;99.90
25668;DHT22;18003;-33.830;151.202;2022-09-09T14:12:34;16.20;99.90
25668;DHT22;18003;-33.830;151.202;2022-09-09T14:15:05;16.20;99.90
25668;DHT22;18003;-33.830;151.202;2022-09-09T14:17:34;16.20;99.90
25668;DHT22;18003;-33.830;151.202;2022-09-09T14:20:08;16.20;99.90
25668;DHT22;18003;-33.830;151.202;2022-09-09T14:22:42;16.20;99.90
25668;DHT22;18003;-33.830;151.202;2022-09-09T14:25:12;16.20;99.90
25668;DHT22;18003;-33.830;151.202;2022-09-09T14:27:42;16.20;99.90
25668;DHT22;18003;-33.830;151.202;2022-09-09T14:30:15;16.20;99.90
25668;DHT22;18003;-33.830;151.202;2022-09-09T14:32:44;16.20;99.90
25668;DHT22;18003;-33.830;151.202;2022-09-09T14:35:14;16.20;99.90
25668;DHT22;18003;-33.830;151.202;2022-09-09T14:37:46;16.20;99.90
25668;DHT22;18003;-33.830;151.202;2022-09-09T14:40:16;16.20;99.90
25668;DHT22;18003;-33.830;151.202;2022-09-09T14:42:46;16.10;99.90
25668;DHT22;18003;-33.830;151.202;2022-09-09T14:45:16;16.10;99.90
25668;DHT22;18003;-33.830;151.202;2022-09-09T14:47:58;16.10;99.90
25668;DHT22;18003;-33.830;151.202;2022-09-09T14:50:49;16.10;99.90
25668;DHT22;18003;-33.830;151.202;2022-09-09T14:53:09;16.20;99.90
25668;DHT22;18003;-33.830;151.202;2022-09-09T14:55:57;16.10;99.90
25668;DHT22;18003;-33.830;151.202;2022-09-09T14:58:33;16.10;99.90
25668;DHT22;18003;-33.830;151.202;2022-09-09T15:01:10;16.10;99.90
25668;DHT22;18003;-33.830;151.202;2022-09-09T15:03:35;16.10;99.90
25668;DHT22;18003;-33.830;151.202;2022-09-09T15:06:10;16.20;99.90
25668;DHT22;18003;-33.830;151.202;2022-09-09T15:08:47;16.10;99.90
25668;DHT22;18003;-33.830;151.202;2022-09-09T15:11:28;16.10;99.90
25668;DHT22;18003;-33.830;151.202;2022-09-09T15:13:59;16.20;99.90
25668;DHT22;18003;-33.830;151.202;2022-09-09T15:16:29;16.10;99.90
25668;DHT22;18003;-33.830;151.202;2022-09-09T15:19:00;16.10;99.90
25668;DHT22;18003;-33.830;151.202;2022-09-09T15:21:32;16.10;99.90
25668;DHT22;18003;-33.830;151.202;2022-09-09T15:24:03;16.10;99.90
25668;DHT22;18003;-33.830;151.202;2022-09-09T15:26:33;16.10;99.90
25668;DHT22;18003;-33.830;151.202;2022-09-09T15:29:14;16.10;99.90
25668;DHT22;18003;-33.830;151.202;2022-09-09T15:31:54;16.10;99.90
25668;DHT22;18003;-33.830;151.202;2022-09-09T15:34:24;16.10;99.90
25668;DHT22;18003;-33.830;151.202;2022-09-09T15:36:54;16.10;99.90
25668;DHT22;18003;-33.830;151.202;2022-09-09T15:39:24;16.10;99.90
25668;DHT22;18003;-33.830;151.202;2022-09-09T15:42:03;16.10;99.90
25668;DHT22;18003;-33.830;151.202;2022-09-09T15:44:44;16.10;99.90
25668;DHT22;18003;-33.830;151.202;2022-09-09T15:47:14;16.10;99.90
25668;DHT22;18003;-33.830;151.202;2022-09-09T15:49:45;16.10;99.90
25668;DHT22;18003;-33.830;151.202;2022-09-09T15:52:15;16.10;99.90
25668;DHT22;18003;-33.830;151.202;2022-09-09T15:54:45;16.10;99.90
25668;DHT22;18003;-33.830;151.202;2022-09-09T15:57:14;16.10;99.90
25668;DHT22;18003;-33.830;151.202;2022-09-09T15:59:44;16.10;99.90
25668;DHT22;18003;-33.830;151.202;2022-09-09T16:02:14;16.10;99.90
25668;DHT22;18003;-33.830;151.202;2022-09-09T16:04:55;16.10;99.90
25668;DHT22;18003;-33.830;151.202;2022-09-09T16:07:29;16.10;99.90
25668;DHT22;18003;-33.830;151.202;2022-09-09T16:09:59;16.10;99.90
25668;DHT22;18003;-33.830;151.202;2022-09-09T16:12:52;16.10;99.90
25668;DHT22;18003;-33.830;151.202;2022-09-09T16:15:26;16.00;99.90
25668;DHT22;18003;-33.830;151.202;2022-09-09T16:17:55;16.00;99.90
25668;DHT22;18003;-33.830;151.202;2022-09-09T16:20:41;16.10;99.90
25668;DHT22;18003;-33.830;151.202;2022-09-09T16:23:11;16.10;99.90
25668;DHT22;18003;-33.830;151.202;2022-09-09T16:25:41;16.10;99.90
25668;DHT22;18003;-33.830;151.202;2022-09-09T16:28:13;16.10;99.90
25668;DHT22;18003;-33.830;151.202;2022-09-09T16:30:53;16.10;99.90
25668;DHT22;18003;-33.830;151.202;2022-09-09T16:33:25;16.10;99.90
25668;DHT22;18003;-33.830;151.202;2022-09-09T16:35:56;16.00;99.90
25668;DHT22;18003;-33.830;151.202;2022-09-09T16:38:26;16.00;99.90
25668;DHT22;18003;-33.830;151.202;2022-09-09T16:43:49;16.00;99.90
25668;DHT22;18003;-33.830;151.202;2022-09-09T16:46:18;16.00;99.90
25668;DHT22;18003;-33.830;151.202;2022-09-09T16:48:49;16.00;99.90
25668;DHT22;18003;-33.830;151.202;2022-09-09T16:51:24;16.00;99.90